createdAt,value
2023-04-13T00:02:14.881Z,6.56
2023-04-13T00:04:43.008Z,6.56
2023-04-13T00:07:14.857Z,6.56
2023-04-13T00:09:41.860Z,6.56
2023-04-13T00:12:08.330Z,6.54
2023-04-13T00:14:34.839Z,6.55
2023-04-13T00:17:03.106Z,6.52
2023-04-13T00:19:29.888Z,6.53
2023-04-13T00:21:56.942Z,6.53
2023-04-13T00:24:23.507Z,6.53
2023-04-13T00:26:49.954Z,6.51
2023-04-13T00:29:16.564Z,6.55
2023-04-13T00:31:43.054Z,6.55
2023-04-13T00:34:09.573Z,6.54
2023-04-13T00:36:36.119Z,6.58
2023-04-13T00:39:02.573Z,6.57
2023-04-13T00:41:29.332Z,6.58
2023-04-13T00:43:55.821Z,6.57
2023-04-13T00:46:25.008Z,6.61
2023-04-13T00:48:52.912Z,6.60
2023-04-13T00:51:20.063Z,6.60
2023-04-13T00:53:46.576Z,6.61
2023-04-13T00:56:13.113Z,6.59
2023-04-13T00:58:39.670Z,6.60
2023-04-13T01:01:06.359Z,6.60
2023-04-13T01:03:33.078Z,6.60
2023-04-13T01:06:11.958Z,6.56
2023-04-13T01:08:43.135Z,6.54
2023-04-13T01:11:13.216Z,6.56
2023-04-13T01:13:46.862Z,6.58
2023-04-13T01:16:20.560Z,6.55
2023-04-13T01:18:52.629Z,6.51
2023-04-13T01:21:20.560Z,6.52
2023-04-13T01:24:05.850Z,6.51
2023-04-13T01:26:49.822Z,6.48
2023-04-13T01:29:17.309Z,6.48
2023-04-13T01:31:44.927Z,6.47
2023-04-13T01:34:11.528Z,6.50
2023-04-13T01:36:40.005Z,6.51
2023-04-13T01:39:06.449Z,6.47
2023-04-13T01:41:33.091Z,6.51
2023-04-13T01:43:59.796Z,6.51
2023-04-13T01:46:28.954Z,6.51
2023-04-13T01:48:56.922Z,6.50
2023-04-13T01:51:24.911Z,6.48
2023-04-13T01:53:55.826Z,6.50
2023-04-13T01:56:26.672Z,6.50
2023-04-13T01:58:56.318Z,6.53
2023-04-13T02:01:22.881Z,6.51
2023-04-13T02:03:49.660Z,6.49
2023-04-13T02:06:16.204Z,6.53
2023-04-13T02:08:42.841Z,6.48
2023-04-13T02:11:10.257Z,6.50
2023-04-13T02:13:36.751Z,6.49
2023-04-13T02:16:04.569Z,6.56
2023-04-13T02:18:32.087Z,6.44
2023-04-13T02:21:00.858Z,6.45
2023-04-13T02:23:27.324Z,6.42
2023-04-13T02:25:53.867Z,6.48
2023-04-13T02:28:20.590Z,6.49
2023-04-13T02:30:47.223Z,6.47
2023-04-13T02:33:14.083Z,6.48
2023-04-13T02:35:40.708Z,6.50
2023-04-13T02:38:07.289Z,6.45
2023-04-13T02:40:33.814Z,6.46
2023-04-13T02:43:00.241Z,6.45
2023-04-13T02:45:27.298Z,6.49
2023-04-13T02:47:53.990Z,6.48
2023-04-13T02:50:20.734Z,6.49
2023-04-13T02:52:47.247Z,6.48
2023-04-13T02:55:13.782Z,6.49
2023-04-13T02:57:42.349Z,6.49
2023-04-13T03:00:12.014Z,6.47
2023-04-13T03:02:38.684Z,6.42
2023-04-13T03:05:08.830Z,6.45
2023-04-13T03:07:36.387Z,6.47
2023-04-13T03:10:05.464Z,6.50
2023-04-13T03:12:32.789Z,6.49
2023-04-13T03:15:03.535Z,6.47
2023-04-13T03:17:32.768Z,6.46
2023-04-13T03:19:59.847Z,6.46
2023-04-13T03:22:30.688Z,6.49
2023-04-13T03:24:57.230Z,6.51
2023-04-13T03:27:23.746Z,6.45
2023-04-13T03:29:50.437Z,6.47
2023-04-13T03:32:17.030Z,6.41
2023-04-13T03:34:44.272Z,6.44
2023-04-13T03:37:11.742Z,6.45
2023-04-13T03:39:39.316Z,6.48
2023-04-13T03:42:05.840Z,6.41
2023-04-13T03:44:32.808Z,6.43
2023-04-13T03:46:59.340Z,6.43
2023-04-13T03:49:25.943Z,6.47
2023-04-13T03:51:52.398Z,6.48
2023-04-13T03:54:18.952Z,6.50
2023-04-13T03:56:45.607Z,6.49
2023-04-13T03:59:12.185Z,6.53
2023-04-13T04:01:38.929Z,6.51
2023-04-13T04:04:06.027Z,6.56
2023-04-13T04:06:32.713Z,6.51
2023-04-13T04:08:59.223Z,6.48
2023-04-13T04:11:26.016Z,6.46
2023-04-13T04:13:52.601Z,6.44
2023-04-13T04:16:19.089Z,6.36
2023-04-13T04:18:45.827Z,6.37
2023-04-13T04:21:13.252Z,6.34
2023-04-13T04:23:39.987Z,6.36
2023-04-13T04:26:06.718Z,6.37
2023-04-13T04:28:39.369Z,6.38
2023-04-13T04:31:12.165Z,6.39
2023-04-13T04:33:38.777Z,6.43
2023-04-13T04:36:07.297Z,6.47
2023-04-13T04:38:33.866Z,6.51
2023-04-13T04:41:02.290Z,6.56
2023-04-13T04:43:29.776Z,6.65
2023-04-13T04:45:59.608Z,6.75
2023-04-13T04:48:27.121Z,6.88
2023-04-13T04:50:55.600Z,6.90
2023-04-13T04:53:22.538Z,7.01
2023-04-13T04:55:49.088Z,7.08
2023-04-13T04:58:16.801Z,7.20
2023-04-13T05:00:43.249Z,7.26
2023-04-13T05:03:09.822Z,7.29
2023-04-13T05:05:36.530Z,7.33
2023-04-13T05:08:03.240Z,7.33
2023-04-13T05:10:30.225Z,7.29
2023-04-13T05:12:56.874Z,7.20
2023-04-13T05:15:23.502Z,7.19
2023-04-13T05:17:51.030Z,7.21
2023-04-13T05:20:19.370Z,7.22
2023-04-13T05:22:45.855Z,7.29
2023-04-13T05:25:13.326Z,7.33
2023-04-13T05:27:39.849Z,7.32
2023-04-13T05:30:06.692Z,7.32
2023-04-13T05:32:34.061Z,7.35
2023-04-13T05:35:00.586Z,7.40
2023-04-13T05:37:27.527Z,7.49
2023-04-13T05:39:54.043Z,7.57
2023-04-13T05:42:20.584Z,7.63
2023-04-13T05:44:47.097Z,7.63
2023-04-13T05:47:13.566Z,7.64
2023-04-13T05:49:40.039Z,7.62
2023-04-13T05:52:07.895Z,7.59
2023-04-13T05:54:34.626Z,7.64
2023-04-13T05:57:01.161Z,7.70
2023-04-13T05:59:27.615Z,7.76
2023-04-13T06:01:54.307Z,7.84
2023-04-13T06:04:22.589Z,7.79
2023-04-13T06:06:49.989Z,7.85
2023-04-13T06:09:16.454Z,7.91
2023-04-13T06:11:43.402Z,7.99
2023-04-13T06:14:09.993Z,8.11
2023-04-13T06:16:37.217Z,8.18
2023-04-13T06:19:04.003Z,8.16
2023-04-13T06:21:30.480Z,8.27
2023-04-13T06:23:57.064Z,8.43
2023-04-13T06:26:23.538Z,8.50
2023-04-13T06:28:50.146Z,8.37
2023-04-13T06:31:16.724Z,8.41
2023-04-13T06:33:43.431Z,8.54
2023-04-13T06:36:10.055Z,8.62
2023-04-13T06:38:36.607Z,8.68
2023-04-13T06:41:03.797Z,8.84
2023-04-13T06:43:30.385Z,8.96
2023-04-13T06:46:00.712Z,9.07
2023-04-13T06:48:27.381Z,9.17
2023-04-13T06:50:57.201Z,9.29
2023-04-13T06:53:23.961Z,9.51
2023-04-13T06:55:50.979Z,9.58
2023-04-13T06:58:17.501Z,9.43
2023-04-13T07:00:44.182Z,9.52
2023-04-13T07:03:11.291Z,9.77
2023-04-13T07:05:38.994Z,9.86
2023-04-13T07:08:06.459Z,10.10
2023-04-13T07:10:33.067Z,10.51
2023-04-13T07:12:59.624Z,10.24
2023-04-13T07:15:26.344Z,10.16
2023-04-13T07:17:52.987Z,10.32
2023-04-13T07:20:19.573Z,10.38
2023-04-13T07:22:46.104Z,10.74
2023-04-13T07:25:12.592Z,10.94
2023-04-13T07:27:39.377Z,10.95
2023-04-13T07:30:06.603Z,10.94
2023-04-13T07:32:33.135Z,10.75
2023-04-13T07:35:01.905Z,10.54
2023-04-13T07:37:29.041Z,10.61
2023-04-13T07:39:55.474Z,10.61
2023-04-13T07:42:21.982Z,10.47
2023-04-13T07:44:48.481Z,10.58
2023-04-13T07:47:17.404Z,10.57
2023-04-13T07:49:43.906Z,10.68
2023-04-13T07:52:23.270Z,10.79
2023-04-13T07:54:49.975Z,10.80
2023-04-13T07:57:21.492Z,11.11
2023-04-13T07:59:48.184Z,11.61
2023-04-13T08:02:17.020Z,11.98
2023-04-13T08:04:44.929Z,12.08
2023-04-13T08:07:11.541Z,12.00
2023-04-13T08:09:39.483Z,11.53
2023-04-13T08:12:09.341Z,11.66
2023-04-13T08:17:04.441Z,11.75
2023-04-13T08:19:33.458Z,11.98
2023-04-13T08:22:00.028Z,12.13
2023-04-13T08:24:26.872Z,12.21
2023-04-13T08:26:56.309Z,12.29
2023-04-13T08:29:24.273Z,12.39
2023-04-13T08:31:51.501Z,12.73
2023-04-13T08:34:18.615Z,12.80
2023-04-13T08:36:49.778Z,12.85
2023-04-13T08:39:16.663Z,12.73
2023-04-13T08:41:49.702Z,12.99
2023-04-13T08:44:16.375Z,13.15
2023-04-13T08:46:44.887Z,13.25
2023-04-13T08:49:12.203Z,12.90
2023-04-13T08:51:47.390Z,12.74
2023-04-13T08:54:14.934Z,13.04
2023-04-13T08:56:46.181Z,13.31
2023-04-13T08:59:15.522Z,13.15
2023-04-13T09:01:43.310Z,13.41
2023-04-13T09:04:13.851Z,13.04
2023-04-13T09:06:42.729Z,13.07
2023-04-13T09:09:10.839Z,13.37
2023-04-13T09:11:37.756Z,13.83
2023-04-13T09:14:04.570Z,14.12
2023-04-13T09:16:38.059Z,14.22
2023-04-13T09:19:04.608Z,14.44
2023-04-13T09:21:38.079Z,14.31
2023-04-13T09:24:04.888Z,14.33
2023-04-13T09:26:47.321Z,14.36
2023-04-13T09:29:14.880Z,14.15
2023-04-13T09:31:43.584Z,14.41
2023-04-13T09:34:11.828Z,14.12
2023-04-13T09:36:49.504Z,14.33
2023-04-13T09:39:28.299Z,14.41
2023-04-13T09:41:55.670Z,14.78
2023-04-13T09:44:24.610Z,14.92
2023-04-13T09:46:58.085Z,14.50
2023-04-13T09:49:25.877Z,13.96
2023-04-13T09:51:53.209Z,14.23
2023-04-13T09:54:22.997Z,14.41
2023-04-13T09:56:54.645Z,14.66
2023-04-13T09:59:24.800Z,14.25
2023-04-13T10:01:55.258Z,14.23
2023-04-13T10:04:22.120Z,14.17
2023-04-13T10:06:48.995Z,13.73
2023-04-13T10:09:15.920Z,14.27
2023-04-13T10:11:46.418Z,14.58
2023-04-13T10:14:31.769Z,14.83
2023-04-13T10:17:25.142Z,14.88
2023-04-13T10:19:53.346Z,15.09
2023-04-13T10:22:22.753Z,14.92
2023-04-13T10:24:50.899Z,14.96
2023-04-13T10:27:21.621Z,14.43
2023-04-13T10:29:48.668Z,15.11
2023-04-13T10:32:22.694Z,14.87
2023-04-13T10:34:49.331Z,15.13
2023-04-13T10:37:19.395Z,15.25
2023-04-13T10:39:46.744Z,15.34
2023-04-13T10:42:14.972Z,15.30
2023-04-13T10:44:46.923Z,15.41
2023-04-13T10:47:14.672Z,15.16
2023-04-13T10:49:41.837Z,15.25
2023-04-13T10:52:10.138Z,15.34
2023-04-13T10:54:55.755Z,14.65
2023-04-13T10:57:48.732Z,14.78
2023-04-13T11:00:22.965Z,15.03
2023-04-13T11:02:56.770Z,15.52
2023-04-13T11:05:24.541Z,15.52
2023-04-13T11:07:55.048Z,15.58
2023-04-13T11:10:28.912Z,15.61
2023-04-13T11:12:56.571Z,15.63
2023-04-13T11:15:24.194Z,15.38
2023-04-13T11:17:54.580Z,15.64
2023-04-13T11:20:30.588Z,15.52
2023-04-13T11:22:57.678Z,15.28
2023-04-13T11:25:24.226Z,15.48
2023-04-13T11:28:00.782Z,15.73
2023-04-13T11:30:27.707Z,15.87
2023-04-13T11:32:55.271Z,16.13
2023-04-13T11:35:23.392Z,16.07
2023-04-13T11:37:55.090Z,16.56
2023-04-13T11:40:22.987Z,16.18
2023-04-13T11:42:53.671Z,16.33
2023-04-13T11:45:22.283Z,16.50
2023-04-13T11:47:52.205Z,16.47
2023-04-13T11:50:19.467Z,16.06
2023-04-13T11:52:47.221Z,16.54
2023-04-13T11:55:22.350Z,17.05
2023-04-13T11:57:50.820Z,17.24
2023-04-13T12:00:19.090Z,17.10
2023-04-13T12:03:00.099Z,17.13
2023-04-13T12:05:31.482Z,17.28
2023-04-13T12:07:59.674Z,16.95
2023-04-13T12:10:39.581Z,16.87
2023-04-13T12:16:05.162Z,15.74
2023-04-13T12:18:46.935Z,16.05
2023-04-13T12:21:20.279Z,16.03
2023-04-13T12:23:59.612Z,16.10
2023-04-13T12:29:08.732Z,16.68
2023-04-13T12:31:37.302Z,16.91
2023-04-13T12:34:05.344Z,17.15
2023-04-13T12:36:34.211Z,17.07
2023-04-13T12:39:01.334Z,16.56
2023-04-13T12:41:28.110Z,16.87
2023-04-13T12:43:54.994Z,16.85
2023-04-13T12:46:22.143Z,17.64
2023-04-13T12:48:49.784Z,18.06
2023-04-13T12:51:16.482Z,17.97
2023-04-13T12:53:43.107Z,18.48
2023-04-13T12:56:10.098Z,18.16
2023-04-13T12:58:36.757Z,17.73
2023-04-13T13:01:03.606Z,17.75
2023-04-13T13:03:30.819Z,17.83
2023-04-13T13:05:57.488Z,17.71
2023-04-13T13:08:24.156Z,17.86
2023-04-13T13:10:51.183Z,18.34
2023-04-13T13:13:18.735Z,18.27
2023-04-13T13:15:45.797Z,17.93
2023-04-13T13:18:13.303Z,18.66
2023-04-13T13:20:41.614Z,18.64
2023-04-13T13:23:12.490Z,18.44
2023-04-13T13:25:43.661Z,18.12
2023-04-13T13:28:16.155Z,18.38
2023-04-13T13:30:43.538Z,17.64
2023-04-13T13:33:10.348Z,18.28
2023-04-13T13:35:37.018Z,18.49
2023-04-13T13:38:03.608Z,18.50
2023-04-13T13:40:30.628Z,18.54
2023-04-13T13:42:57.490Z,17.94
2023-04-13T13:45:24.632Z,17.66
2023-04-13T13:47:53.626Z,17.97
2023-04-13T13:50:21.833Z,18.52
2023-04-13T13:53:02.441Z,19.46
2023-04-13T13:55:31.129Z,19.16
2023-04-13T13:57:57.931Z,18.79
2023-04-13T14:00:24.669Z,18.76
2023-04-13T14:02:51.932Z,19.07
2023-04-13T14:05:18.806Z,18.78
2023-04-13T14:07:45.890Z,19.09
2023-04-13T14:10:13.519Z,18.60
2023-04-13T14:12:41.842Z,18.61
2023-04-13T14:15:10.335Z,18.50
2023-04-13T14:17:37.350Z,18.72
2023-04-13T14:20:09.352Z,19.02
2023-04-13T14:22:36.963Z,19.00
2023-04-13T14:25:04.206Z,19.01
2023-04-13T14:27:30.901Z,18.83
2023-04-13T14:29:57.727Z,18.60
2023-04-13T14:32:24.537Z,19.05
2023-04-13T14:34:51.239Z,19.31
2023-04-13T14:37:17.876Z,19.52
2023-04-13T14:39:44.592Z,19.56
2023-04-13T14:42:14.438Z,19.32
2023-04-13T14:44:41.304Z,18.83
2023-04-13T14:47:09.695Z,19.30
2023-04-13T14:49:36.888Z,19.86
2023-04-13T14:52:04.135Z,19.92
2023-04-13T14:54:30.833Z,19.48
2023-04-13T14:56:57.987Z,19.88
2023-04-13T14:59:26.150Z,20.36
2023-04-13T15:01:52.974Z,21.00
2023-04-13T15:04:19.735Z,20.99
2023-04-13T15:06:49.421Z,20.75
2023-04-13T15:09:16.234Z,21.04
2023-04-13T15:11:45.723Z,21.47
2023-04-13T15:14:12.403Z,21.19
2023-04-13T15:16:39.094Z,21.91
2023-04-13T15:19:05.722Z,20.76
2023-04-13T15:21:32.719Z,20.89
2023-04-13T15:23:59.904Z,22.39
2023-04-13T15:26:27.251Z,22.54
2023-04-13T15:28:53.893Z,22.38
2023-04-13T15:31:22.316Z,21.82
2023-04-13T15:33:49.379Z,22.40
2023-04-13T15:36:16.812Z,23.64
2023-04-13T15:38:43.943Z,21.47
2023-04-13T15:41:14.045Z,20.47
2023-04-13T15:43:41.473Z,20.06
2023-04-13T15:46:09.087Z,21.83
2023-04-13T15:48:35.933Z,21.72
2023-04-13T15:51:02.578Z,22.46
2023-04-13T15:53:29.301Z,22.00
2023-04-13T15:55:56.327Z,22.21
2023-04-13T15:58:23.047Z,23.10
2023-04-13T16:01:04.354Z,22.77
2023-04-13T16:03:31.840Z,23.36
2023-04-13T16:05:58.715Z,22.83
2023-04-13T16:08:25.884Z,23.37
2023-04-13T16:10:54.656Z,23.51
2023-04-13T16:13:22.618Z,22.81
2023-04-13T16:15:53.337Z,22.43
2023-04-13T16:18:21.819Z,22.55
2023-04-13T16:21:04.203Z,20.80
2023-04-13T16:23:33.831Z,20.26
2023-04-13T16:26:01.670Z,20.08
2023-04-13T16:28:29.008Z,20.07
2023-04-13T16:30:56.309Z,19.51
2023-04-13T16:33:23.068Z,17.89
2023-04-13T16:35:52.224Z,16.70
2023-04-13T16:38:18.824Z,16.32
2023-04-13T16:40:45.754Z,15.99
2023-04-13T16:43:12.661Z,15.70
2023-04-13T16:45:39.322Z,15.65
2023-04-13T16:48:06.306Z,15.43
2023-04-13T16:50:33.026Z,15.22
2023-04-13T16:52:59.771Z,15.03
2023-04-13T16:55:28.737Z,14.98
2023-04-13T16:57:56.006Z,14.88
2023-04-13T17:00:23.266Z,14.64
2023-04-13T17:02:50.202Z,14.52
2023-04-13T17:05:17.373Z,14.38
2023-04-13T17:07:44.703Z,14.25
2023-04-13T17:10:13.147Z,14.06
2023-04-13T17:12:40.415Z,13.86
2023-04-13T17:15:07.934Z,13.71
2023-04-13T17:17:35.175Z,13.59
2023-04-13T17:20:03.283Z,13.56
2023-04-13T17:22:30.435Z,13.43
2023-04-13T17:24:57.161Z,13.25
2023-04-13T17:27:23.761Z,13.16
2023-04-13T17:29:50.344Z,13.15
2023-04-13T17:32:19.093Z,13.00
2023-04-13T17:34:46.063Z,12.79
2023-04-13T17:37:12.640Z,12.56
2023-04-13T17:39:43.240Z,12.41
2023-04-13T17:42:09.878Z,12.35
2023-04-13T17:44:36.506Z,12.28
2023-04-13T17:47:03.250Z,12.29
2023-04-13T17:49:30.035Z,12.20
2023-04-13T17:51:59.479Z,12.12
2023-04-13T17:54:28.833Z,12.06
2023-04-13T17:57:01.189Z,11.84
2023-04-13T17:59:36.259Z,11.78
2023-04-13T18:02:03.031Z,11.80
2023-04-13T18:04:31.476Z,11.80
2023-04-13T18:06:59.643Z,11.65
2023-04-13T18:09:28.167Z,11.50
2023-04-13T18:11:54.816Z,11.43
2023-04-13T18:14:21.460Z,11.37
2023-04-13T18:16:48.182Z,11.36
2023-04-13T18:19:15.226Z,11.22
2023-04-13T18:21:41.798Z,11.07
2023-04-13T18:24:08.482Z,10.97
2023-04-13T18:26:36.041Z,10.81
2023-04-13T18:29:02.729Z,10.85
2023-04-13T18:31:29.465Z,10.93
2023-04-13T18:33:56.268Z,10.85
2023-04-13T18:36:24.635Z,10.82
2023-04-13T18:38:51.430Z,10.79
2023-04-13T18:41:18.092Z,10.75
2023-04-13T18:43:44.788Z,10.51
2023-04-13T18:46:11.948Z,10.34
2023-04-13T18:48:38.678Z,10.33
2023-04-13T18:51:05.443Z,10.32
2023-04-13T18:53:32.133Z,10.33
2023-04-13T18:55:59.062Z,10.28
2023-04-13T18:58:26.460Z,10.26
2023-04-13T19:00:53.259Z,10.28
2023-04-13T19:03:20.935Z,10.10
2023-04-13T19:05:47.837Z,10.01
2023-04-13T19:08:15.358Z,10.01
2023-04-13T19:10:42.436Z,9.87
2023-04-13T19:13:09.278Z,9.67
2023-04-13T19:15:36.518Z,9.40
2023-04-13T19:18:04.508Z,9.31
2023-04-13T19:20:31.494Z,9.31
2023-04-13T19:22:58.416Z,9.34
2023-04-13T19:25:25.175Z,9.37
2023-04-13T19:27:51.835Z,9.28
2023-04-13T19:30:19.634Z,9.29
2023-04-13T19:32:48.349Z,9.21
2023-04-13T19:35:15.357Z,9.15
2023-04-13T19:37:42.345Z,9.05
2023-04-13T19:40:09.963Z,9.12
2023-04-13T19:42:41.472Z,9.01
2023-04-13T19:45:09.266Z,9.02
2023-04-13T19:47:37.472Z,8.92
2023-04-13T19:50:04.946Z,8.77
2023-04-13T19:52:33.987Z,8.69
2023-04-13T19:55:00.672Z,8.55
2023-04-13T19:57:28.655Z,8.42
2023-04-13T19:59:55.391Z,8.31
2023-04-13T20:02:22.347Z,8.22
2023-04-13T20:04:52.221Z,8.22
2023-04-13T20:07:19.001Z,8.03
2023-04-13T20:09:46.364Z,8.04
2023-04-13T20:12:13.204Z,8.12
2023-04-13T20:14:41.931Z,8.03
2023-04-13T20:17:09.522Z,7.95
2023-04-13T20:19:42.154Z,7.88
2023-04-13T20:22:10.236Z,7.92
2023-04-13T20:24:36.851Z,7.81
2023-04-13T20:27:03.565Z,7.73
2023-04-13T20:29:30.138Z,7.76
2023-04-13T20:31:56.735Z,7.52
2023-04-13T20:34:24.368Z,7.64
2023-04-13T20:36:51.057Z,7.49
2023-04-13T20:39:22.101Z,7.51
2023-04-13T20:41:54.489Z,7.43
2023-04-13T20:44:25.849Z,7.35
2023-04-13T20:46:56.332Z,7.33
2023-04-13T20:49:24.425Z,7.28
2023-04-13T20:51:56.003Z,7.29
2023-04-13T20:54:23.513Z,7.31
2023-04-13T20:56:50.385Z,7.27
2023-04-13T20:59:18.496Z,7.26
2023-04-13T21:01:45.714Z,7.22
2023-04-13T21:04:14.693Z,7.17
2023-04-13T21:06:41.304Z,7.23
2023-04-13T21:09:08.872Z,7.14
2023-04-13T21:11:35.797Z,7.11
2023-04-13T21:14:02.798Z,7.04
2023-04-13T21:16:29.939Z,7.06
2023-04-13T21:18:57.111Z,6.99
2023-04-13T21:21:25.078Z,6.83
2023-04-13T21:23:52.719Z,6.83
2023-04-13T21:26:20.259Z,6.81
2023-04-13T21:28:46.923Z,6.83
2023-04-13T21:31:13.545Z,6.83
2023-04-13T21:33:40.354Z,6.84
2023-04-13T21:38:40.794Z,6.69
2023-04-13T21:41:17.384Z,6.64
2023-04-13T21:43:44.295Z,6.62
2023-04-13T21:46:11.345Z,6.60
2023-04-13T21:48:38.075Z,6.56
2023-04-13T21:51:07.809Z,6.50
2023-04-13T21:53:34.970Z,6.46
2023-04-13T21:56:02.407Z,6.45
2023-04-13T21:58:45.751Z,6.39
2023-04-13T22:01:13.566Z,6.40
2023-04-13T22:03:41.272Z,6.29
2023-04-13T22:06:09.202Z,6.35
2023-04-13T22:08:36.145Z,6.26
2023-04-13T22:11:02.775Z,6.21
2023-04-13T22:13:29.870Z,6.17
2023-04-13T22:15:56.770Z,6.15
2023-04-13T22:18:23.422Z,6.06
2023-04-13T22:20:50.208Z,6.16
2023-04-13T22:23:16.980Z,6.17
2023-04-13T22:25:58.440Z,6.17
2023-04-13T22:28:26.317Z,6.16
2023-04-13T22:30:53.097Z,6.18
2023-04-13T22:33:20.683Z,6.28
2023-04-13T22:35:50.889Z,6.29
2023-04-13T22:38:18.566Z,6.23
2023-04-13T22:40:45.461Z,6.31
2023-04-13T22:43:12.150Z,6.27
2023-04-13T22:45:38.791Z,6.16
2023-04-13T22:48:05.949Z,6.14
2023-04-13T22:50:32.642Z,6.17
2023-04-13T22:52:59.310Z,6.16
2023-04-13T22:55:26.155Z,6.23
2023-04-13T22:57:52.820Z,6.23
2023-04-13T23:00:20.826Z,6.18
2023-04-13T23:02:50.534Z,6.24
2023-04-13T23:05:17.616Z,6.19
2023-04-13T23:07:44.325Z,6.16
2023-04-13T23:10:10.901Z,6.14
2023-04-13T23:12:37.557Z,6.19
2023-04-13T23:15:04.283Z,6.13
2023-04-13T23:17:30.957Z,6.09
2023-04-13T23:19:57.553Z,6.03
2023-04-13T23:22:24.033Z,5.96
2023-04-13T23:24:50.643Z,5.84
2023-04-13T23:27:18.117Z,5.73
2023-04-13T23:29:49.392Z,5.74
2023-04-13T23:32:16.490Z,5.77
2023-04-13T23:34:43.137Z,5.81
2023-04-13T23:37:09.658Z,5.81
2023-04-13T23:39:37.572Z,5.86
2023-04-13T23:42:04.210Z,5.81
2023-04-13T23:44:30.959Z,5.81
2023-04-13T23:46:57.478Z,5.83
2023-04-13T23:49:23.952Z,5.81
2023-04-13T23:51:50.487Z,5.84
2023-04-13T23:54:16.970Z,5.92
2023-04-13T23:56:43.458Z,6.02
2023-04-13T23:59:10.018Z,5.89
